Montana, Bulgaria

3:09 AM EET on February 14, 2016 (GMT +0200)
Sofia | | Change Station
CLOSE
Current Station
Airport
Location: Sofia,
Elevation: 1952 ft
Nearby Weather Stations

Elev 1952 ft 42.65 °N, 23.38 °E | Updated 9 minutes ago

Clear
Clear
37 °F
Feels Like 33 °F
N
6
Wind Variable Wind from East

Today
High -- | Low -- °F
--% Chance of Precip.
Yesterday
High -- | Low -- °F
Precip. -- in
Pressure 29.59 in
Visibility -9999.0 miles
Clouds
Windchill 33 °F
Dew Point 34 °F
Humidity 87%
Rainfall 0.00 in
Snow Depth Not available.
7:27 AM 5:55 PM
Waxing Crescent, 36% visible
METAR LBSF 140100Z 10005KT 070V160 CAVOK 03/01 Q1002 R99/19//95 NOSIG
Pressure 29.59 in
Visibility -9999.0 miles
Clouds
Windchill 33 °F
Dew Point 34 °F
Humidity 87%
Rainfall 0.00 in
Snow Depth Not available.
7:27 AM 5:55 PM
Waxing Crescent, 36% visible
METAR LBSF 140100Z 10005KT 070V160 CAVOK 03/01 Q1002 R99/19//95 NOSIG

10-Day Weather Forecast

Almanac

Astronomy

Feb. 14, 2016 Rise Set
Actual Time
Civil Twilight
Nautical Twilight
Astronomical Twilight
Moon
Length of Visible Light
Length of Day
Tomorrow will be .
, % of the Moon is Illuminated

Today's Extremes

Country Highs Country Lows

Community

WunderPhotos

Upload Photos

1,892,720 photos uploaded!

WunderBlog® & News

Nearby

Air Quality

  Air Quality AQ Index Pollutant
Not available.

Snow Depth

Station Depth Elevation

Earthquake Activity

City Distance Mag. Time & Date
Minimum magnitude displayed is 2.5.

Coastal Water Temperatures

Place Temperature

Stations

Nearby Weather Stations

Station Location Temp. Windchill Dew Point Humidity Wind Precip. Elev Updated Type